createdAt,value
2017-03-21T00:00:07.920Z,6.60
2017-03-21T00:01:07.748Z,6.60
2017-03-21T00:02:07.122Z,6.60
2017-03-21T00:03:07.012Z,6.60
2017-03-21T00:04:07.319Z,6.60
2017-03-21T00:05:07.033Z,6.70
2017-03-21T00:06:06.730Z,6.70
2017-03-21T00:07:06.310Z,6.70
2017-03-21T00:08:06.506Z,6.70
2017-03-21T00:09:06.108Z,6.70
2017-03-21T00:10:05.770Z,6.70
2017-03-21T00:11:05.148Z,6.70
2017-03-21T00:12:04.484Z,6.70
2017-03-21T00:13:03.859Z,6.70
2017-03-21T00:14:03.516Z,6.60
2017-03-21T00:15:02.793Z,6.60
2017-03-21T00:16:02.122Z,6.60
2017-03-21T00:17:01.960Z,6.60
2017-03-21T00:18:01.257Z,6.50
2017-03-21T00:19:00.637Z,6.50
2017-03-21T00:19:59.978Z,6.40
2017-03-21T00:20:59.263Z,6.40
2017-03-21T00:21:58.508Z,6.40
2017-03-21T00:22:57.799Z,6.40
2017-03-21T00:23:57.075Z,6.40
2017-03-21T00:24:56.358Z,6.40
2017-03-21T00:25:56.025Z,6.30
2017-03-21T00:26:55.289Z,6.30
2017-03-21T00:27:54.528Z,6.30
2017-03-21T00:28:53.808Z,6.30
2017-03-21T00:29:53.110Z,6.40
2017-03-21T00:30:52.401Z,6.30
2017-03-21T00:31:51.767Z,6.30
2017-03-21T00:32:51.793Z,6.20
2017-03-21T00:33:51.174Z,6.20
2017-03-21T00:34:50.457Z,6.20
2017-03-21T00:35:49.701Z,6.20
2017-03-21T00:36:48.997Z,6.20
2017-03-21T00:37:48.608Z,6.20
2017-03-21T00:38:47.894Z,6.20
2017-03-21T00:39:47.194Z,6.20
2017-03-21T00:40:46.503Z,6.20
2017-03-21T00:41:45.814Z,6.20
2017-03-21T00:42:45.117Z,6.20
2017-03-21T00:43:44.471Z,6.10
2017-03-21T00:44:44.540Z,6.10
2017-03-21T00:45:44.222Z,6.10
2017-03-21T00:46:43.496Z,6.10
2017-03-21T00:47:42.777Z,6.10
2017-03-21T00:48:42.102Z,6.00
2017-03-21T00:49:41.416Z,6.00
2017-03-21T00:50:40.694Z,5.90
2017-03-21T00:51:39.975Z,5.90
2017-03-21T00:52:39.233Z,5.80
2017-03-21T00:53:38.482Z,5.80
2017-03-21T00:54:38.126Z,5.70
2017-03-21T00:55:37.403Z,5.70
2017-03-21T00:56:36.715Z,5.70
2017-03-21T00:57:36.089Z,5.60
2017-03-21T00:58:35.408Z,5.60
2017-03-21T00:59:34.753Z,5.60
2017-03-21T01:00:34.142Z,5.60
2017-03-21T01:01:34.211Z,5.60
2017-03-21T01:02:33.544Z,5.60
2017-03-21T01:03:32.850Z,5.60
2017-03-21T01:04:32.133Z,5.60
2017-03-21T01:05:32.200Z,5.60
2017-03-21T01:06:31.521Z,5.60
2017-03-21T01:07:30.785Z,5.60
2017-03-21T01:08:30.378Z,5.70
2017-03-21T01:09:29.756Z,5.60
2017-03-21T01:10:29.037Z,5.60
2017-03-21T01:11:29.017Z,5.50
2017-03-21T01:12:28.600Z,5.60
2017-03-21T01:13:27.915Z,5.60
2017-03-21T01:14:27.202Z,5.60
2017-03-21T01:15:26.441Z,5.60
2017-03-21T01:16:25.734Z,5.70
2017-03-21T01:17:25.015Z,5.70
2017-03-21T01:18:24.342Z,5.70
2017-03-21T01:19:23.653Z,5.70
2017-03-21T01:20:23.030Z,5.70
2017-03-21T01:21:22.289Z,5.70
2017-03-21T01:22:21.567Z,5.80
2017-03-21T01:23:20.954Z,5.80
2017-03-21T01:24:20.287Z,5.90
2017-03-21T01:25:19.563Z,5.90
2017-03-21T01:26:18.873Z,6.00
2017-03-21T01:27:18.165Z,6.00
2017-03-21T01:28:17.450Z,6.10
2017-03-21T01:29:16.846Z,6.10
2017-03-21T01:30:16.189Z,6.20
2017-03-21T01:31:15.478Z,6.20
2017-03-21T01:32:14.837Z,6.20
2017-03-21T01:33:14.215Z,6.20
2017-03-21T01:34:13.527Z,6.30
2017-03-21T01:35:12.863Z,6.30
2017-03-21T01:36:12.151Z,6.40
2017-03-21T01:37:11.506Z,6.40
2017-03-21T01:38:10.800Z,6.40
2017-03-21T01:39:10.094Z,6.40
2017-03-21T01:40:09.368Z,6.40
2017-03-21T01:41:08.642Z,6.50
2017-03-21T01:42:07.946Z,6.50
2017-03-21T01:43:07.222Z,6.40
2017-03-21T01:44:06.517Z,6.50
2017-03-21T01:45:06.141Z,6.50
2017-03-21T01:46:05.434Z,6.50
2017-03-21T01:47:04.734Z,6.50
2017-03-21T01:48:04.063Z,6.60
2017-03-21T01:49:03.358Z,6.60
2017-03-21T01:50:02.673Z,6.70
2017-03-21T01:51:04.516Z,6.70
2017-03-21T01:52:03.852Z,6.70
2017-03-21T01:53:03.126Z,6.70
2017-03-21T01:54:02.530Z,6.80
2017-03-21T01:55:01.811Z,6.80
2017-03-21T01:56:01.119Z,6.80
2017-03-21T01:57:00.442Z,6.90
2017-03-21T01:57:59.748Z,7.00
2017-03-21T01:58:59.027Z,7.00
2017-03-21T01:59:58.304Z,7.00
2017-03-21T02:00:57.620Z,7.00
2017-03-21T02:01:56.913Z,7.00
2017-03-21T02:02:56.842Z,7.00
2017-03-21T02:03:56.140Z,7.00
2017-03-21T02:04:55.438Z,7.10
2017-03-21T02:05:54.721Z,7.10
2017-03-21T02:06:53.993Z,7.10
2017-03-21T02:07:53.345Z,7.10
2017-03-21T02:08:52.643Z,7.10
2017-03-21T02:09:51.906Z,7.10
2017-03-21T02:10:51.972Z,7.10
2017-03-21T02:11:51.258Z,7.10
2017-03-21T02:12:50.815Z,7.10
2017-03-21T02:13:50.115Z,7.10
2017-03-21T02:14:49.460Z,7.10
2017-03-21T02:15:48.770Z,7.20
2017-03-21T02:16:48.828Z,7.20
2017-03-21T02:17:48.130Z,7.20
2017-03-21T02:18:47.444Z,7.20
2017-03-21T02:19:46.895Z,7.20
2017-03-21T02:20:46.149Z,7.30
2017-03-21T02:21:45.458Z,7.30
2017-03-21T02:22:44.734Z,7.40
2017-03-21T02:23:44.330Z,7.40
2017-03-21T02:24:46.456Z,7.40
2017-03-21T02:25:45.782Z,7.40
2017-03-21T02:26:45.051Z,7.50
2017-03-21T02:27:44.417Z,7.50
2017-03-21T02:28:43.829Z,7.50
2017-03-21T02:29:43.118Z,7.50
2017-03-21T02:30:42.416Z,7.50
2017-03-21T02:31:41.748Z,7.50
2017-03-21T02:32:41.036Z,7.50
2017-03-21T02:33:40.314Z,7.50
2017-03-21T02:34:39.669Z,7.50
2017-03-21T02:35:38.993Z,7.50
2017-03-21T02:36:38.273Z,7.60
2017-03-21T02:37:37.575Z,7.50
2017-03-21T02:38:36.854Z,7.60
2017-03-21T02:39:36.861Z,7.50
2017-03-21T02:40:36.440Z,7.50
2017-03-21T02:41:35.750Z,7.50
2017-03-21T02:42:35.027Z,7.50
2017-03-21T02:43:34.312Z,7.50
2017-03-21T02:44:33.628Z,7.50
2017-03-21T02:45:32.949Z,7.50
2017-03-21T02:46:32.265Z,7.50
2017-03-21T02:47:31.602Z,7.50
2017-03-21T02:48:30.887Z,7.50
2017-03-21T02:49:30.297Z,7.50
2017-03-21T02:50:29.578Z,7.40
2017-03-21T02:51:28.846Z,7.40
2017-03-21T02:52:28.126Z,7.40
2017-03-21T02:53:27.425Z,7.40
2017-03-21T02:54:26.816Z,7.50
2017-03-21T02:55:26.148Z,7.50
2017-03-21T02:56:25.424Z,7.50
2017-03-21T02:57:24.748Z,7.50
2017-03-21T02:58:24.390Z,7.50
2017-03-21T02:59:23.682Z,7.60
2017-03-21T03:00:23.077Z,7.60
2017-03-21T03:01:22.406Z,7.60
2017-03-21T03:02:21.767Z,7.60
2017-03-21T03:03:21.158Z,7.60
2017-03-21T03:04:20.477Z,7.70
2017-03-21T03:05:19.805Z,7.70
2017-03-21T03:06:19.126Z,7.70
2017-03-21T03:07:18.450Z,7.70
2017-03-21T03:08:18.472Z,7.70
2017-03-21T03:09:17.838Z,7.80
2017-03-21T03:10:17.163Z,7.80
2017-03-21T03:11:16.498Z,7.80
2017-03-21T03:12:15.762Z,7.80
2017-03-21T03:13:15.099Z,7.80
2017-03-21T03:14:14.436Z,7.80
2017-03-21T03:15:13.777Z,7.80
2017-03-21T03:16:13.049Z,7.80
2017-03-21T03:17:12.362Z,7.70
2017-03-21T03:18:11.689Z,7.80
2017-03-21T03:19:11.000Z,7.80
2017-03-21T03:20:10.309Z,7.80
2017-03-21T03:21:09.878Z,7.80
2017-03-21T03:22:09.197Z,7.80
2017-03-21T03:23:08.504Z,7.80
2017-03-21T03:24:07.753Z,7.80
2017-03-21T03:25:07.081Z,7.80
2017-03-21T03:26:06.444Z,7.90
2017-03-21T03:27:05.755Z,8.00
2017-03-21T03:28:05.060Z,8.10
2017-03-21T03:29:04.363Z,8.10
2017-03-21T03:30:03.697Z,8.20
2017-03-21T03:31:03.004Z,8.20
2017-03-21T03:32:02.346Z,8.20
2017-03-21T03:33:01.654Z,8.20
2017-03-21T03:34:00.995Z,8.30
2017-03-21T03:35:00.273Z,8.30
2017-03-21T03:35:59.579Z,8.30
2017-03-21T03:37:00.701Z,8.40
2017-03-21T03:38:00.284Z,8.50
2017-03-21T03:38:59.962Z,8.50
2017-03-21T03:39:59.302Z,8.50
2017-03-21T03:40:58.609Z,8.60
2017-03-21T03:41:57.902Z,8.60
2017-03-21T03:42:57.184Z,8.70
2017-03-21T03:43:56.510Z,8.70
2017-03-21T03:44:55.805Z,8.70
2017-03-21T03:45:55.144Z,8.80
2017-03-21T03:46:54.453Z,8.70
2017-03-21T03:47:53.726Z,8.70
2017-03-21T03:48:52.992Z,8.70
2017-03-21T03:49:52.245Z,8.70
2017-03-21T03:50:51.582Z,8.70
2017-03-21T03:51:50.839Z,8.70
2017-03-21T03:52:50.113Z,8.70
2017-03-21T03:53:49.408Z,8.70
2017-03-21T03:54:48.685Z,8.70
2017-03-21T03:55:48.036Z,8.80
2017-03-21T03:56:47.297Z,8.80
2017-03-21T03:57:46.597Z,8.80
2017-03-21T03:58:45.863Z,8.80
2017-03-21T03:59:45.152Z,8.80
2017-03-21T04:00:44.461Z,8.80
2017-03-21T04:01:43.772Z,8.80
2017-03-21T04:02:43.102Z,8.80
2017-03-21T04:03:42.425Z,8.80
2017-03-21T04:04:41.699Z,8.80
2017-03-21T04:05:41.696Z,8.80
2017-03-21T04:06:41.015Z,8.80
2017-03-21T04:07:40.331Z,8.80
2017-03-21T04:08:39.616Z,8.80
2017-03-21T04:09:38.933Z,8.80
2017-03-21T04:10:38.277Z,8.80
2017-03-21T04:11:37.616Z,8.80
2017-03-21T04:12:36.892Z,8.70
2017-03-21T04:13:36.214Z,8.70
2017-03-21T04:14:35.577Z,8.70
2017-03-21T04:15:34.905Z,8.70
2017-03-21T04:16:34.178Z,8.70
2017-03-21T04:17:33.472Z,8.70
2017-03-21T04:18:32.743Z,8.70
2017-03-21T04:19:32.774Z,8.70
2017-03-21T04:20:32.085Z,8.70
2017-03-21T04:21:32.101Z,8.70
2017-03-21T04:22:31.393Z,8.70
2017-03-21T04:23:30.723Z,8.70
2017-03-21T04:24:30.055Z,8.70
2017-03-21T04:25:30.088Z,8.70
2017-03-21T04:26:29.393Z,8.70
2017-03-21T04:27:28.773Z,8.70
2017-03-21T04:28:28.062Z,8.70
2017-03-21T04:29:27.313Z,8.70
2017-03-21T04:30:26.660Z,8.70
2017-03-21T04:31:25.933Z,8.70
2017-03-21T04:32:25.213Z,8.70
2017-03-21T04:33:24.742Z,8.70
2017-03-21T04:34:24.030Z,8.70
2017-03-21T04:35:23.317Z,8.70
2017-03-21T04:36:22.704Z,8.70
2017-03-21T04:37:22.062Z,8.70
2017-03-21T04:38:21.381Z,8.70
2017-03-21T04:39:20.706Z,8.60
2017-03-21T04:40:20.043Z,8.60
2017-03-21T04:41:19.359Z,8.60
2017-03-21T04:42:18.682Z,8.60
2017-03-21T04:43:17.942Z,8.60
2017-03-21T04:44:17.242Z,8.60
2017-03-21T04:45:16.853Z,8.60
2017-03-21T04:46:16.163Z,8.60
2017-03-21T04:47:15.447Z,8.60
2017-03-21T04:48:14.722Z,8.60
2017-03-21T04:49:14.018Z,8.60
2017-03-21T04:50:13.301Z,8.60
2017-03-21T04:51:12.825Z,8.60
2017-03-21T04:52:12.138Z,8.60
2017-03-21T04:53:11.405Z,8.60
2017-03-21T04:54:10.695Z,8.60
2017-03-21T04:55:10.121Z,8.50
2017-03-21T04:56:09.483Z,8.50
2017-03-21T04:57:08.815Z,8.50
2017-03-21T04:58:08.122Z,8.50
2017-03-21T04:59:07.446Z,8.50
2017-03-21T05:00:06.777Z,8.50
2017-03-21T05:01:06.082Z,8.40
2017-03-21T05:02:05.381Z,8.40
2017-03-21T05:03:04.689Z,8.40
2017-03-21T05:04:04.038Z,8.40
2017-03-21T05:05:03.326Z,8.30
2017-03-21T05:06:02.626Z,8.30
2017-03-21T05:07:01.916Z,8.30
2017-03-21T05:08:01.463Z,8.30
2017-03-21T05:09:00.908Z,8.30
2017-03-21T05:10:00.193Z,8.30
2017-03-21T05:11:00.244Z,8.20
2017-03-21T05:11:59.521Z,8.20
2017-03-21T05:12:58.859Z,8.20
2017-03-21T05:13:58.463Z,8.20
2017-03-21T05:14:57.791Z,8.20
2017-03-21T05:15:57.065Z,8.20
2017-03-21T05:16:56.346Z,8.20
2017-03-21T05:17:55.670Z,8.20
2017-03-21T05:18:54.966Z,8.20
2017-03-21T05:19:54.240Z,8.20
2017-03-21T05:20:53.552Z,8.10
2017-03-21T05:21:52.805Z,8.10
2017-03-21T05:22:52.130Z,8.10
2017-03-21T05:23:51.395Z,8.10
2017-03-21T05:24:50.782Z,8.10
2017-03-21T05:25:50.089Z,8.10
2017-03-21T05:26:49.336Z,8.00
2017-03-21T05:27:48.621Z,8.00
2017-03-21T05:28:47.893Z,8.00
2017-03-21T05:29:47.169Z,8.00
2017-03-21T05:30:46.508Z,8.10
2017-03-21T05:31:45.851Z,8.10
2017-03-21T05:32:45.114Z,8.10
2017-03-21T05:33:44.368Z,8.10
2017-03-21T05:34:43.689Z,8.10
2017-03-21T05:35:43.702Z,8.10
2017-03-21T05:36:43.047Z,8.20
2017-03-21T05:37:42.330Z,8.20
2017-03-21T05:38:42.369Z,8.20
2017-03-21T05:39:41.644Z,8.20
2017-03-21T05:40:40.933Z,8.30
2017-03-21T05:41:40.249Z,8.30
2017-03-21T05:42:39.547Z,8.30
2017-03-21T05:43:38.936Z,8.30
2017-03-21T05:44:38.940Z,8.30
2017-03-21T05:45:38.232Z,8.40
2017-03-21T05:46:37.505Z,8.40
2017-03-21T05:47:36.871Z,8.40
2017-03-21T05:48:36.191Z,8.40
2017-03-21T05:49:35.455Z,8.50
2017-03-21T05:50:34.730Z,8.50
2017-03-21T05:51:34.002Z,8.50
2017-03-21T05:52:33.310Z,8.50
2017-03-21T05:53:32.846Z,8.50
2017-03-21T05:54:32.136Z,8.60
2017-03-21T05:55:31.403Z,8.60
2017-03-21T05:56:30.725Z,8.60
2017-03-21T05:57:30.013Z,8.60
2017-03-21T05:58:29.329Z,8.60
2017-03-21T05:59:28.624Z,8.60
2017-03-21T06:00:28.027Z,8.60
2017-03-21T06:01:27.418Z,8.60
2017-03-21T06:02:26.752Z,8.60
2017-03-21T06:03:26.066Z,8.60
2017-03-21T06:04:25.353Z,8.60
2017-03-21T06:05:24.661Z,8.70
2017-03-21T06:06:23.973Z,8.70
2017-03-21T06:07:23.262Z,8.70
2017-03-21T06:08:22.519Z,8.70
2017-03-21T06:09:21.874Z,8.70
2017-03-21T06:10:21.497Z,8.70
2017-03-21T06:11:20.783Z,8.70
2017-03-21T06:12:20.166Z,8.70
2017-03-21T06:13:19.455Z,8.70
2017-03-21T06:14:18.733Z,8.70
2017-03-21T06:15:18.016Z,8.70
2017-03-21T06:16:17.356Z,8.70
2017-03-21T06:17:16.624Z,8.70
2017-03-21T06:18:15.917Z,8.70
2017-03-21T06:19:15.258Z,8.70
2017-03-21T06:20:14.516Z,8.70
2017-03-21T06:21:13.865Z,8.70
2017-03-21T06:22:13.142Z,8.70
2017-03-21T06:23:12.443Z,8.70
2017-03-21T06:24:11.716Z,8.70
2017-03-21T06:25:10.977Z,8.70
2017-03-21T06:26:10.297Z,8.70
2017-03-21T06:27:09.845Z,8.70
2017-03-21T06:28:09.150Z,8.70
2017-03-21T06:29:08.434Z,8.70
2017-03-21T06:30:07.782Z,8.80
2017-03-21T06:31:07.059Z,8.80
2017-03-21T06:32:06.348Z,8.80
2017-03-21T06:33:05.656Z,8.90
2017-03-21T06:34:04.986Z,8.90
2017-03-21T06:35:04.264Z,8.90
2017-03-21T06:36:03.563Z,8.90
2017-03-21T06:37:02.887Z,8.90
2017-03-21T06:38:02.297Z,8.90
2017-03-21T06:39:01.969Z,9.00
2017-03-21T06:40:01.247Z,8.90
2017-03-21T06:41:00.560Z,9.00
2017-03-21T06:42:00.575Z,9.00
2017-03-21T06:42:59.868Z,9.10
2017-03-21T06:43:59.153Z,9.00
2017-03-21T06:44:58.401Z,9.10
2017-03-21T06:45:57.677Z,9.10
2017-03-21T06:46:57.020Z,9.10
2017-03-21T06:47:56.312Z,9.20
2017-03-21T06:48:56.322Z,9.20
2017-03-21T06:49:55.834Z,9.30
2017-03-21T06:50:55.117Z,9.40
2017-03-21T06:51:54.410Z,9.40
2017-03-21T06:52:53.717Z,9.50
2017-03-21T06:53:52.981Z,9.50
2017-03-21T06:54:52.254Z,9.60
2017-03-21T06:55:51.950Z,9.70
2017-03-21T06:56:51.232Z,9.80
2017-03-21T06:57:50.482Z,9.80
2017-03-21T06:58:49.764Z,9.90
2017-03-21T06:59:49.049Z,10.00
2017-03-21T07:00:48.349Z,10.00
2017-03-21T07:01:47.685Z,10.10
2017-03-21T07:02:46.988Z,10.20
2017-03-21T07:03:46.243Z,10.20
2017-03-21T07:04:45.513Z,10.30
2017-03-21T07:05:44.826Z,10.50
2017-03-21T07:06:44.822Z,10.60
2017-03-21T07:07:44.970Z,10.70
2017-03-21T07:08:44.270Z,10.90
2017-03-21T07:09:43.539Z,11.00
2017-03-21T07:10:42.784Z,11.10
2017-03-21T07:11:42.042Z,11.20
2017-03-21T07:12:41.339Z,11.40
2017-03-21T07:13:40.668Z,11.50
2017-03-21T07:14:39.920Z,11.60
2017-03-21T07:15:39.958Z,11.80
2017-03-21T07:16:39.242Z,12.10
2017-03-21T07:17:38.573Z,12.30
2017-03-21T07:18:38.082Z,12.50
2017-03-21T07:19:37.369Z,12.60
2017-03-21T07:20:36.646Z,12.70
2017-03-21T07:21:35.930Z,12.80
2017-03-21T07:22:35.197Z,12.80
2017-03-21T07:23:34.479Z,12.80
2017-03-21T07:24:33.776Z,12.90
2017-03-21T07:25:33.109Z,12.80
2017-03-21T07:26:32.379Z,12.90
2017-03-21T07:27:31.637Z,12.90
2017-03-21T07:28:30.902Z,13.00
2017-03-21T07:29:30.484Z,13.00
2017-03-21T07:30:29.762Z,13.10
2017-03-21T07:31:29.040Z,13.10
2017-03-21T07:32:28.359Z,13.10
2017-03-21T07:33:27.644Z,13.00
2017-03-21T07:34:26.997Z,12.90
2017-03-21T07:35:26.306Z,12.90
2017-03-21T07:36:25.696Z,13.00
2017-03-21T07:37:25.671Z,13.00
2017-03-21T07:38:24.975Z,13.10
2017-03-21T07:39:24.267Z,13.20
2017-03-21T07:40:23.598Z,13.20
2017-03-21T07:41:22.950Z,13.20
2017-03-21T07:42:22.249Z,13.10
2017-03-21T07:43:21.581Z,13.00
2017-03-21T07:44:20.851Z,12.80
2017-03-21T07:45:20.157Z,12.70
2017-03-21T07:46:19.428Z,12.60
2017-03-21T07:47:19.584Z,12.50
2017-03-21T07:48:18.863Z,12.40
2017-03-21T07:49:18.149Z,12.30
2017-03-21T07:50:17.438Z,12.20
2017-03-21T07:51:16.745Z,12.20
2017-03-21T07:52:16.014Z,12.10
2017-03-21T07:53:15.678Z,12.10
2017-03-21T07:54:14.975Z,12.10
2017-03-21T07:55:14.254Z,12.10
2017-03-21T07:56:13.532Z,12.20
2017-03-21T07:57:12.810Z,12.20
2017-03-21T07:58:12.835Z,12.20
2017-03-21T07:59:12.641Z,12.20
2017-03-21T08:00:11.989Z,12.20
2017-03-21T08:01:11.280Z,12.20
2017-03-21T08:02:11.373Z,12.20
2017-03-21T08:03:10.789Z,12.20
2017-03-21T08:04:10.109Z,12.20
2017-03-21T08:05:09.614Z,12.20
2017-03-21T08:06:08.984Z,12.20
2017-03-21T08:07:08.235Z,12.20
2017-03-21T08:08:07.518Z,12.30
2017-03-21T08:09:07.236Z,12.20
2017-03-21T08:10:06.534Z,12.30
2017-03-21T08:11:05.894Z,12.40
2017-03-21T08:12:05.188Z,12.50
2017-03-21T08:13:04.491Z,12.60
2017-03-21T08:14:03.805Z,12.60
2017-03-21T08:15:03.413Z,12.50
2017-03-21T08:16:02.694Z,12.60
2017-03-21T08:17:01.983Z,12.60
2017-03-21T08:18:01.254Z,12.60
2017-03-21T08:19:00.667Z,12.70
2017-03-21T08:19:59.965Z,12.80
2017-03-21T08:21:00.424Z,12.80
2017-03-21T08:21:59.713Z,12.90
2017-03-21T08:22:58.986Z,13.00
2017-03-21T08:23:58.255Z,13.00
2017-03-21T08:24:58.287Z,13.10
2017-03-21T08:25:57.577Z,13.00
2017-03-21T08:26:56.933Z,13.10
2017-03-21T08:27:56.257Z,13.20
2017-03-21T08:28:55.590Z,13.20
2017-03-21T08:29:54.900Z,13.30
2017-03-21T08:30:54.185Z,13.40
2017-03-21T08:31:53.502Z,13.50
2017-03-21T08:32:52.778Z,13.70
2017-03-21T08:33:52.052Z,13.80
2017-03-21T08:34:51.348Z,13.70
2017-03-21T08:35:50.780Z,13.70
2017-03-21T08:36:50.093Z,13.80
2017-03-21T08:37:49.369Z,13.90
2017-03-21T08:38:48.673Z,14.10
2017-03-21T08:39:48.004Z,14.30
2017-03-21T08:40:47.299Z,14.50
2017-03-21T08:41:46.733Z,14.60
2017-03-21T08:42:46.032Z,14.90
2017-03-21T08:43:45.377Z,15.00
2017-03-21T08:44:44.661Z,15.00
2017-03-21T08:45:43.942Z,15.00
2017-03-21T08:46:43.230Z,14.90
2017-03-21T08:47:42.546Z,14.70
2017-03-21T08:48:41.863Z,14.70
2017-03-21T08:49:41.121Z,14.70
2017-03-21T08:50:40.378Z,14.60
2017-03-21T08:51:39.656Z,14.50
2017-03-21T08:52:38.988Z,14.50
2017-03-21T08:53:39.066Z,14.50
2017-03-21T08:54:38.364Z,14.60
2017-03-21T08:55:37.678Z,14.50
2017-03-21T08:56:36.930Z,14.50
2017-03-21T08:57:36.188Z,14.50
2017-03-21T08:58:35.928Z,14.50
2017-03-21T08:59:35.246Z,14.40
2017-03-21T09:00:34.843Z,14.30
2017-03-21T09:01:34.133Z,14.20
2017-03-21T09:02:33.382Z,14.10
2017-03-21T09:03:32.618Z,14.00
2017-03-21T09:04:31.871Z,13.90
2017-03-21T09:05:31.147Z,13.90
2017-03-21T09:06:30.485Z,13.80
2017-03-21T09:07:30.104Z,13.90
2017-03-21T09:08:29.356Z,13.90
2017-03-21T09:09:28.642Z,14.00
2017-03-21T09:10:27.972Z,13.90
2017-03-21T09:11:27.224Z,13.90
2017-03-21T09:12:26.552Z,14.00
2017-03-21T09:13:25.813Z,14.10
2017-03-21T09:14:25.096Z,14.20
2017-03-21T09:15:24.373Z,14.40
2017-03-21T09:16:23.645Z,14.60
2017-03-21T09:17:23.494Z,14.70
2017-03-21T09:18:23.004Z,14.80
2017-03-21T09:19:22.283Z,14.80
2017-03-21T09:20:21.614Z,14.80
2017-03-21T09:21:20.964Z,14.70
2017-03-21T09:22:20.265Z,14.80
2017-03-21T09:23:19.576Z,14.80
2017-03-21T09:24:18.963Z,14.90
2017-03-21T09:25:18.314Z,14.90
2017-03-21T09:26:17.625Z,15.10
2017-03-21T09:27:16.910Z,15.20
2017-03-21T09:28:16.204Z,15.40
2017-03-21T09:29:15.527Z,15.50
2017-03-21T09:30:14.816Z,15.50
2017-03-21T09:31:14.070Z,15.40
2017-03-21T09:32:13.334Z,15.40
2017-03-21T09:33:12.638Z,15.40
2017-03-21T09:34:11.923Z,15.40
2017-03-21T09:35:11.209Z,15.30
2017-03-21T09:36:10.501Z,15.10
2017-03-21T09:37:09.760Z,15.10
2017-03-21T09:38:09.116Z,15.10
2017-03-21T09:39:08.434Z,15.10
2017-03-21T09:40:08.446Z,15.10
2017-03-21T09:41:07.716Z,15.20
2017-03-21T09:42:07.429Z,15.30
2017-03-21T09:43:06.670Z,15.20
2017-03-21T09:44:08.786Z,15.20
2017-03-21T09:45:09.177Z,15.30
2017-03-21T09:46:08.433Z,15.30
2017-03-21T09:47:07.786Z,15.30
2017-03-21T09:48:07.168Z,15.30
2017-03-21T09:49:06.484Z,15.30
2017-03-21T09:50:05.862Z,15.40
2017-03-21T09:51:05.115Z,15.50
2017-03-21T09:52:04.451Z,15.50
2017-03-21T09:53:03.746Z,15.50
2017-03-21T09:54:02.988Z,15.60
2017-03-21T09:55:02.289Z,15.60
2017-03-21T09:56:01.567Z,15.60
2017-03-21T09:57:01.588Z,15.70
2017-03-21T09:58:00.863Z,15.80
2017-03-21T09:59:00.178Z,15.90
2017-03-21T09:59:59.438Z,15.90
2017-03-21T10:00:58.706Z,16.00
2017-03-21T10:01:57.991Z,16.00
2017-03-21T10:02:57.224Z,15.90
2017-03-21T10:03:56.489Z,15.80
2017-03-21T10:04:55.747Z,15.70
2017-03-21T10:05:55.044Z,15.70
2017-03-21T10:06:54.296Z,15.80
2017-03-21T10:07:53.562Z,16.00
2017-03-21T10:08:52.818Z,16.10
2017-03-21T10:09:52.137Z,16.30
2017-03-21T10:10:51.396Z,16.30
2017-03-21T10:11:50.660Z,16.40
2017-03-21T10:12:49.947Z,16.50
2017-03-21T10:13:49.274Z,16.60
2017-03-21T10:14:48.563Z,16.70
2017-03-21T10:15:47.853Z,16.70
2017-03-21T10:16:47.092Z,16.70
2017-03-21T10:17:46.333Z,16.70
2017-03-21T10:18:45.632Z,16.60
2017-03-21T10:19:44.906Z,16.50
2017-03-21T10:20:44.184Z,16.40
2017-03-21T10:21:43.481Z,16.30
2017-03-21T10:22:42.762Z,16.00
2017-03-21T10:23:42.005Z,15.80
2017-03-21T10:24:41.255Z,15.60
2017-03-21T10:25:40.510Z,15.50
2017-03-21T10:26:39.798Z,15.40
2017-03-21T10:27:39.056Z,15.20
2017-03-21T10:28:38.341Z,15.10
2017-03-21T10:29:37.590Z,15.00
2017-03-21T10:30:36.856Z,15.00
2017-03-21T10:31:36.158Z,14.90
2017-03-21T10:32:36.291Z,14.90
2017-03-21T10:33:35.531Z,14.90
2017-03-21T10:34:34.797Z,14.90
2017-03-21T10:35:34.050Z,14.80
2017-03-21T10:36:33.310Z,14.80
2017-03-21T10:37:32.898Z,14.80
2017-03-21T10:38:32.192Z,14.60
2017-03-21T10:39:31.437Z,14.60
2017-03-21T10:40:30.718Z,14.50
2017-03-21T10:41:30.011Z,14.40
2017-03-21T10:42:29.312Z,14.30
2017-03-21T10:43:28.571Z,14.30
2017-03-21T10:44:27.842Z,14.20
2017-03-21T10:45:27.148Z,14.20
2017-03-21T10:46:26.507Z,14.10
2017-03-21T10:47:25.762Z,14.10
2017-03-21T10:48:25.070Z,14.20
2017-03-21T10:49:24.340Z,14.30
2017-03-21T10:50:23.634Z,14.60
2017-03-21T10:51:22.876Z,14.80
2017-03-21T10:52:22.120Z,15.30
2017-03-21T10:53:21.419Z,15.70
2017-03-21T10:54:20.665Z,16.10
2017-03-21T10:55:19.938Z,16.50
2017-03-21T10:56:19.208Z,16.80
2017-03-21T10:57:18.477Z,17.00
2017-03-21T10:58:17.756Z,17.20
2017-03-21T10:59:17.277Z,17.30
2017-03-21T11:00:16.637Z,17.50
2017-03-21T11:01:15.929Z,17.60
2017-03-21T11:02:15.369Z,17.80
2017-03-21T11:03:14.625Z,18.00
2017-03-21T11:04:13.869Z,18.10
2017-03-21T11:05:13.143Z,18.30
2017-03-21T11:06:12.416Z,18.50
2017-03-21T11:07:11.700Z,18.60
2017-03-21T11:08:11.004Z,18.60
2017-03-21T11:09:10.265Z,18.70
2017-03-21T11:10:09.519Z,18.60
2017-03-21T11:11:09.530Z,18.60
2017-03-21T11:12:08.784Z,18.40
2017-03-21T11:13:08.089Z,18.30
2017-03-21T11:14:07.389Z,18.30
2017-03-21T11:15:06.622Z,18.20
2017-03-21T11:16:05.900Z,18.10
2017-03-21T11:17:05.150Z,18.00
2017-03-21T11:18:04.440Z,17.90
2017-03-21T11:19:03.710Z,17.90
2017-03-21T11:20:02.984Z,17.80
2017-03-21T11:21:02.265Z,17.80
2017-03-21T11:22:01.540Z,17.70
2017-03-21T11:23:02.160Z,17.70
2017-03-21T11:24:01.419Z,17.70
2017-03-21T11:25:00.682Z,17.70
2017-03-21T11:25:59.953Z,17.80
2017-03-21T11:26:59.222Z,17.80
2017-03-21T11:27:58.480Z,17.80
2017-03-21T11:28:57.762Z,17.80
2017-03-21T11:29:57.065Z,17.80
2017-03-21T11:30:56.329Z,17.70
2017-03-21T11:31:55.601Z,17.80
2017-03-21T11:32:54.876Z,17.80
2017-03-21T11:33:54.117Z,17.70
2017-03-21T11:34:53.370Z,17.70
2017-03-21T11:35:52.989Z,17.80
2017-03-21T11:36:52.271Z,17.70
2017-03-21T11:37:51.530Z,17.80
2017-03-21T11:38:51.958Z,17.80
2017-03-21T11:39:51.233Z,17.70
2017-03-21T11:40:50.510Z,17.60
2017-03-21T11:41:49.806Z,17.40
2017-03-21T11:42:49.050Z,17.40
2017-03-21T11:43:48.301Z,17.40
2017-03-21T11:44:47.557Z,17.40
2017-03-21T11:45:46.797Z,17.50
2017-03-21T11:46:46.069Z,17.50
2017-03-21T11:47:45.308Z,17.50
2017-03-21T11:48:44.794Z,17.60
2017-03-21T11:49:44.054Z,17.60
2017-03-21T11:50:43.310Z,17.70
2017-03-21T11:51:42.597Z,17.90
2017-03-21T11:52:41.878Z,17.90
2017-03-21T11:53:41.170Z,17.90
2017-03-21T11:54:40.433Z,17.90
2017-03-21T11:55:39.697Z,17.80
2017-03-21T11:56:38.941Z,17.80
2017-03-21T11:57:38.222Z,17.60
2017-03-21T11:58:37.539Z,17.60
2017-03-21T11:59:37.054Z,17.50
2017-03-21T12:00:36.314Z,17.40
2017-03-21T12:01:35.577Z,17.30
2017-03-21T12:02:34.877Z,17.30
2017-03-21T12:03:34.121Z,17.30
2017-03-21T12:04:33.392Z,17.30
2017-03-21T12:05:32.779Z,17.40
2017-03-21T12:06:32.110Z,17.40
2017-03-21T12:07:31.365Z,17.40
2017-03-21T12:08:30.644Z,17.40
2017-03-21T12:09:29.969Z,17.40
2017-03-21T12:10:29.263Z,17.40
2017-03-21T12:11:28.522Z,17.20
2017-03-21T12:12:27.783Z,17.10
2017-03-21T12:13:27.111Z,17.00
2017-03-21T12:14:26.365Z,17.10
2017-03-21T12:15:25.642Z,17.20
2017-03-21T12:16:24.935Z,17.20
2017-03-21T12:17:24.223Z,17.20
2017-03-21T12:18:23.452Z,17.30
2017-03-21T12:19:22.746Z,17.40
2017-03-21T12:20:22.024Z,17.30
2017-03-21T12:21:21.272Z,17.10
2017-03-21T12:22:20.724Z,17.00
2017-03-21T12:23:20.345Z,16.80
2017-03-21T12:24:19.609Z,16.60
2017-03-21T12:25:18.878Z,16.60
2017-03-21T12:26:18.249Z,16.50
2017-03-21T12:27:17.541Z,16.50
2017-03-21T12:28:18.738Z,16.50
2017-03-21T12:29:18.028Z,16.50
2017-03-21T12:30:17.294Z,16.40
2017-03-21T12:31:16.561Z,16.30
2017-03-21T12:32:16.589Z,16.30
2017-03-21T12:33:16.029Z,16.20
2017-03-21T12:34:15.525Z,16.10
2017-03-21T12:35:14.836Z,16.10
2017-03-21T12:36:14.120Z,16.00
2017-03-21T12:37:13.356Z,15.90
2017-03-21T12:38:12.586Z,15.90
2017-03-21T12:39:11.845Z,15.80
2017-03-21T12:40:11.123Z,15.80
2017-03-21T12:41:10.416Z,15.80
2017-03-21T12:42:09.654Z,15.80
2017-03-21T12:43:08.944Z,15.80
2017-03-21T12:44:08.225Z,15.90
2017-03-21T12:45:07.494Z,15.90
2017-03-21T12:46:06.894Z,15.90
2017-03-21T12:47:06.252Z,15.90
2017-03-21T12:48:05.590Z,15.90
2017-03-21T12:49:04.829Z,15.80
2017-03-21T12:50:04.161Z,15.70
2017-03-21T12:51:03.421Z,15.70
2017-03-21T12:52:02.980Z,15.60
2017-03-21T12:53:02.226Z,15.60
2017-03-21T12:54:01.496Z,15.50
2017-03-21T12:55:00.727Z,15.40
2017-03-21T12:56:00.001Z,15.30
2017-03-21T12:56:59.235Z,15.30
2017-03-21T12:57:58.516Z,15.30